Wake Island, Hawaii
Current Conditions -  °F | °C
As of 7:58 AM on Friday 31 Oct 2014 (Local Time) from PWAK Reporting Station
Clear Clear  
Wind Chill: 82°   Ceiling: Unl
Heat Index: 88°   Visibility: 6mi
Dew Point: 75°   Wind: 2mph
Humidity: 81%   Direction: 130°SE
Pressure: 29.9"   Gusts: NA
Location:  19.2833°N, 166.6°E
Report Text: PWAK 311958Z AUTO 13002KT 9999 CLR 28/24 A2990 RMK AO2 SLP131 T02750240
Loading
Personal Weather Stations






























Interactive Weather Map
Tropical Storm Tracking
New forecast layout! Learn more

10-Day Weather Forecast

Advertisements
Track Severe Weather on mobile